createdAt,value
2023-03-08T00:00:26.726Z,7.40
2023-03-08T00:01:28.634Z,4.72
2023-03-08T00:02:31.786Z,6.55
2023-03-08T00:03:33.721Z,4.40
2023-03-08T00:04:36.731Z,6.10
2023-03-08T00:05:38.720Z,8.80
2023-03-08T00:06:41.612Z,5.10
2023-03-08T00:07:43.536Z,5.35
2023-03-08T00:08:48.480Z,5.75
2023-03-08T00:09:50.589Z,4.68
2023-03-08T00:10:53.872Z,8.75
2023-03-08T00:11:55.882Z,7.70
2023-03-08T00:12:58.802Z,5.82
2023-03-08T00:14:01.812Z,5.22
2023-03-08T00:15:07.012Z,5.68
2023-03-08T00:16:11.838Z,4.45
2023-03-08T00:17:14.800Z,8.85
2023-03-08T00:18:17.139Z,5.05
2023-03-08T00:19:20.061Z,4.78
2023-03-08T00:20:21.966Z,6.85
2023-03-08T00:21:25.062Z,6.75
2023-03-08T00:22:27.304Z,6.85
2023-03-08T00:23:30.303Z,7.60
2023-03-08T00:24:32.238Z,4.68
2023-03-08T00:25:35.219Z,6.30
2023-03-08T00:26:37.204Z,5.35
2023-03-08T00:27:40.186Z,5.35
2023-03-08T00:28:42.316Z,7.50
2023-03-08T00:29:45.237Z,5.68
2023-03-08T00:30:55.572Z,5.65
2023-03-08T00:31:58.863Z,9.93
2023-03-08T00:33:00.755Z,6.22
2023-03-08T00:34:03.659Z,4.80
2023-03-08T00:35:06.526Z,6.40
2023-03-08T00:36:13.170Z,9.82
2023-03-08T00:37:15.078Z,4.53
2023-03-08T00:38:18.003Z,5.80
2023-03-08T00:39:19.960Z,6.88
2023-03-08T00:40:23.229Z,5.45
2023-03-08T00:41:25.433Z,6.20
2023-03-08T00:42:28.659Z,5.88
2023-03-08T00:43:31.736Z,6.00
2023-03-08T00:44:34.687Z,6.60
2023-03-08T00:45:36.913Z,5.35
2023-03-08T00:46:41.182Z,6.30
2023-03-08T00:47:43.197Z,5.30
2023-03-08T00:48:46.141Z,5.03
2023-03-08T00:49:48.104Z,7.85
2023-03-08T00:50:51.279Z,8.35
2023-03-08T00:51:53.268Z,7.10
2023-03-08T00:52:56.630Z,7.10
2023-03-08T00:53:58.930Z,4.78
2023-03-08T00:55:01.883Z,7.05
2023-03-08T00:56:04.136Z,4.65
2023-03-08T00:57:07.225Z,7.10
2023-03-08T00:58:09.500Z,6.05
2023-03-08T00:59:12.523Z,4.88
2023-03-08T01:00:15.659Z,8.68
2023-03-08T01:01:20.513Z,5.63
2023-03-08T01:02:23.859Z,4.35
2023-03-08T01:03:27.410Z,7.93
2023-03-08T01:04:29.542Z,7.25
2023-03-08T01:05:32.432Z,8.45
2023-03-08T01:06:34.711Z,5.53
2023-03-08T01:07:37.627Z,5.15
2023-03-08T01:08:40.231Z,10.07
2023-03-08T01:09:43.203Z,5.60
2023-03-08T01:10:48.350Z,6.15
2023-03-08T01:11:51.378Z,4.25
2023-03-08T01:12:53.287Z,6.85
2023-03-08T01:13:57.030Z,6.90
2023-03-08T01:14:59.192Z,7.88
2023-03-08T01:16:02.798Z,6.72
2023-03-08T01:17:04.770Z,4.95
2023-03-08T01:18:09.126Z,7.57
2023-03-08T01:19:11.330Z,6.57
2023-03-08T01:20:14.600Z,8.43
2023-03-08T01:21:16.892Z,4.45
2023-03-08T01:22:19.835Z,8.48
2023-03-08T01:23:21.747Z,6.63
2023-03-08T01:24:24.635Z,6.65
2023-03-08T01:25:26.692Z,4.28
2023-03-08T01:26:30.093Z,8.55
2023-03-08T01:27:32.043Z,4.25
2023-03-08T01:28:35.544Z,3.85
2023-03-08T01:29:37.576Z,4.55
2023-03-08T01:30:40.522Z,5.20
2023-03-08T01:31:42.481Z,5.28
2023-03-08T01:32:45.750Z,4.13
2023-03-08T01:33:49.687Z,4.68
2023-03-08T01:34:52.766Z,5.43
2023-03-08T01:35:55.006Z,3.90
2023-03-08T01:36:57.963Z,5.15
2023-03-08T01:38:00.100Z,7.22
2023-03-08T01:39:03.796Z,6.07
2023-03-08T01:40:07.507Z,5.40
2023-03-08T01:41:16.448Z,13.27
2023-03-08T01:42:18.375Z,7.47
2023-03-08T01:43:26.040Z,3.78
2023-03-08T01:44:28.326Z,3.65
2023-03-08T01:46:06.608Z,4.60
2023-03-08T01:47:14.445Z,5.80
2023-03-08T01:48:17.187Z,6.20
2023-03-08T01:49:25.509Z,3.75
2023-03-08T01:50:27.537Z,6.38
2023-03-08T01:51:36.560Z,5.90
2023-03-08T01:52:42.523Z,4.20
2023-03-08T01:53:48.907Z,4.55
2023-03-08T01:54:55.672Z,4.80
2023-03-08T01:55:57.952Z,6.78
2023-03-08T01:57:04.107Z,8.05
2023-03-08T01:58:06.106Z,5.88
2023-03-08T01:59:09.375Z,4.30
2023-03-08T02:00:15.834Z,4.00
2023-03-08T02:01:20.235Z,4.40
2023-03-08T02:02:26.527Z,6.85
2023-03-08T02:03:31.135Z,6.53
2023-03-08T02:04:34.948Z,4.55
2023-03-08T02:05:38.888Z,4.90
2023-03-08T02:06:42.102Z,4.43
2023-03-08T02:07:45.091Z,5.30
2023-03-08T02:08:47.196Z,6.15
2023-03-08T02:09:50.494Z,6.75
2023-03-08T02:10:52.950Z,5.00
2023-03-08T02:12:00.147Z,5.35
2023-03-08T02:13:03.311Z,4.10
2023-03-08T02:14:07.301Z,4.00
2023-03-08T02:15:12.130Z,6.03
2023-03-08T02:16:17.381Z,7.72
2023-03-08T02:17:19.712Z,5.15
2023-03-08T02:18:22.678Z,4.60
2023-03-08T02:19:32.882Z,5.10
2023-03-08T02:20:39.682Z,4.90
2023-03-08T02:21:42.069Z,6.07
2023-03-08T02:22:47.181Z,6.35
2023-03-08T02:23:49.154Z,5.68
2023-03-08T02:24:52.139Z,5.25
2023-03-08T02:25:55.959Z,5.10
2023-03-08T02:27:03.255Z,5.75
2023-03-08T02:28:06.134Z,4.20
2023-03-08T02:29:09.148Z,6.03
2023-03-08T02:30:13.774Z,6.82
2023-03-08T02:31:17.215Z,4.97
2023-03-08T02:32:19.640Z,6.25
2023-03-08T02:33:22.902Z,4.22
2023-03-08T02:34:24.909Z,7.18
2023-03-08T02:35:28.052Z,6.82
2023-03-08T02:36:29.985Z,5.03
2023-03-08T02:37:32.998Z,5.30
2023-03-08T02:38:37.189Z,4.20
2023-03-08T02:39:40.116Z,4.57
2023-03-08T02:40:42.043Z,4.40
2023-03-08T02:41:45.407Z,4.97
2023-03-08T02:42:53.189Z,4.28
2023-03-08T02:43:56.456Z,3.97
2023-03-08T02:44:58.402Z,5.88
2023-03-08T02:46:01.378Z,4.82
2023-03-08T02:47:03.319Z,4.38
2023-03-08T02:48:07.488Z,5.53
2023-03-08T02:49:09.447Z,4.55
2023-03-08T02:50:12.919Z,5.32
2023-03-08T02:51:14.915Z,6.13
2023-03-08T02:52:17.941Z,4.43
2023-03-08T02:53:20.175Z,6.20
2023-03-08T02:54:24.434Z,5.32
2023-03-08T02:55:27.080Z,6.88
2023-03-08T02:56:30.350Z,5.38
2023-03-08T02:57:32.366Z,5.68
2023-03-08T02:58:35.315Z,7.95
2023-03-08T02:59:37.314Z,6.80
2023-03-08T03:00:41.216Z,9.18
2023-03-08T03:01:44.262Z,6.97
2023-03-08T03:02:46.373Z,7.32
2023-03-08T03:03:49.372Z,6.18
2023-03-08T03:04:51.366Z,5.00
2023-03-08T03:05:54.341Z,3.75
2023-03-08T03:06:56.333Z,6.97
2023-03-08T03:07:59.581Z,3.95
2023-03-08T03:09:01.928Z,6.57
2023-03-08T03:10:07.465Z,6.65
2023-03-08T03:11:13.857Z,9.35
2023-03-08T03:12:16.726Z,6.05
2023-03-08T03:13:20.598Z,7.30
2023-03-08T03:14:23.874Z,4.43
2023-03-08T03:15:26.129Z,6.28
2023-03-08T03:16:30.303Z,5.82
2023-03-08T03:17:32.990Z,4.93
2023-03-08T03:18:36.042Z,4.68
2023-03-08T03:19:38.254Z,7.25
2023-03-08T03:20:41.206Z,5.40
2023-03-08T03:21:43.197Z,8.43
2023-03-08T03:22:47.202Z,7.40
2023-03-08T03:23:49.709Z,6.43
2023-03-08T03:24:53.022Z,5.90
2023-03-08T03:25:56.360Z,5.38
2023-03-08T03:26:59.656Z,5.00
2023-03-08T03:28:01.881Z,6.38
2023-03-08T03:29:04.822Z,4.35
2023-03-08T03:30:08.728Z,5.13
2023-03-08T03:31:13.377Z,6.15
2023-03-08T03:32:15.470Z,5.65
2023-03-08T03:33:18.465Z,7.10
2023-03-08T03:34:20.445Z,6.53
2023-03-08T03:35:23.678Z,5.88
2023-03-08T03:36:25.975Z,6.78
2023-03-08T03:37:28.948Z,5.40
2023-03-08T03:38:30.913Z,6.90
2023-03-08T03:39:37.917Z,5.82
2023-03-08T03:40:39.834Z,5.25
2023-03-08T03:41:44.129Z,7.22
2023-03-08T03:42:48.616Z,5.38
2023-03-08T03:43:51.934Z,5.80
2023-03-08T03:44:53.923Z,7.65
2023-03-08T03:45:58.059Z,4.75
2023-03-08T03:47:00.038Z,7.25
2023-03-08T03:48:03.149Z,6.68
2023-03-08T03:49:05.348Z,6.85
2023-03-08T03:50:08.909Z,5.60
2023-03-08T03:51:12.735Z,6.10
2023-03-08T03:52:15.651Z,8.82
2023-03-08T03:53:17.721Z,6.00
2023-03-08T03:54:20.654Z,8.15
2023-03-08T03:55:22.578Z,7.05
2023-03-08T03:56:27.296Z,5.82
2023-03-08T03:57:30.563Z,7.30
2023-03-08T03:58:33.817Z,9.68
2023-03-08T03:59:35.916Z,5.22
2023-03-08T04:00:38.888Z,5.72
2023-03-08T04:01:40.818Z,7.25
2023-03-08T04:02:43.809Z,5.10
2023-03-08T04:03:45.790Z,7.18
2023-03-08T04:04:50.508Z,6.07
2023-03-08T04:05:52.450Z,6.05
2023-03-08T04:06:55.392Z,6.63
2023-03-08T04:07:57.403Z,6.32
2023-03-08T04:09:03.111Z,6.63
2023-03-08T04:10:05.960Z,7.13
2023-03-08T04:11:10.290Z,4.97
2023-03-08T04:12:12.573Z,4.63
2023-03-08T04:13:16.903Z,7.30
2023-03-08T04:14:18.892Z,5.43
2023-03-08T04:15:21.849Z,6.60
2023-03-08T04:16:26.785Z,6.88
2023-03-08T04:17:31.669Z,14.25
2023-03-08T04:18:33.948Z,5.22
2023-03-08T04:19:36.956Z,6.30
2023-03-08T04:20:38.884Z,9.50
2023-03-08T04:21:41.867Z,4.75
2023-03-08T04:22:43.772Z,5.03
2023-03-08T04:23:46.755Z,8.23
2023-03-08T04:24:48.972Z,4.90
2023-03-08T04:25:52.274Z,11.88
2023-03-08T04:26:54.228Z,7.65
2023-03-08T04:27:57.311Z,5.53
2023-03-08T04:29:03.027Z,7.75
2023-03-08T04:30:07.108Z,5.65
2023-03-08T04:31:14.188Z,9.02
2023-03-08T04:32:17.343Z,7.47
2023-03-08T04:33:19.352Z,4.20
2023-03-08T04:34:22.610Z,10.07
2023-03-08T04:35:24.608Z,6.93
2023-03-08T04:36:27.672Z,8.82
2023-03-08T04:37:30.564Z,5.57
2023-03-08T04:38:33.742Z,6.05
2023-03-08T04:39:35.649Z,6.53
2023-03-08T04:40:58.851Z,6.68
2023-03-08T04:42:00.801Z,7.60
2023-03-08T04:43:03.732Z,5.00
2023-03-08T04:44:07.208Z,5.50
2023-03-08T04:45:11.132Z,10.80
2023-03-08T04:46:13.733Z,7.88
2023-03-08T04:47:16.992Z,5.63
2023-03-08T04:48:19.241Z,7.50
2023-03-08T04:49:22.234Z,7.28
2023-03-08T04:50:24.178Z,5.95
2023-03-08T04:51:28.254Z,8.18
2023-03-08T04:52:30.234Z,9.80
2023-03-08T04:53:33.539Z,8.00
2023-03-08T04:54:35.473Z,5.88
2023-03-08T04:55:38.406Z,6.80
2023-03-08T04:56:40.599Z,8.40
2023-03-08T04:57:43.754Z,6.07
2023-03-08T04:58:46.061Z,6.28
2023-03-08T04:59:50.362Z,7.00
2023-03-08T05:00:52.640Z,10.52
2023-03-08T05:01:55.919Z,6.05
2023-03-08T05:02:57.857Z,6.38
2023-03-08T05:04:00.902Z,8.30
2023-03-08T05:05:04.339Z,7.43
2023-03-08T05:06:08.560Z,7.05
2023-03-08T05:07:10.512Z,8.88
2023-03-08T05:08:13.506Z,8.23
2023-03-08T05:09:15.411Z,10.23
2023-03-08T05:10:18.502Z,11.23
2023-03-08T05:11:22.385Z,9.55
2023-03-08T05:12:25.290Z,6.22
2023-03-08T05:13:28.559Z,5.95
2023-03-08T05:14:31.596Z,6.82
2023-03-08T05:15:35.483Z,7.15
2023-03-08T05:16:38.508Z,5.72
2023-03-08T05:17:40.452Z,9.90
2023-03-08T05:18:43.376Z,7.72
2023-03-08T05:19:45.353Z,7.18
2023-03-08T05:20:55.420Z,7.97
2023-03-08T05:21:57.458Z,7.40
2023-03-08T05:23:00.394Z,5.35
2023-03-08T05:24:02.406Z,5.07
2023-03-08T05:25:05.920Z,6.10
2023-03-08T05:26:09.332Z,8.48
2023-03-08T05:27:12.297Z,7.55
2023-03-08T05:28:15.878Z,5.97
2023-03-08T05:29:18.950Z,4.68
2023-03-08T05:30:21.104Z,6.78
2023-03-08T05:31:25.465Z,6.10
2023-03-08T05:32:27.682Z,7.13
2023-03-08T05:33:30.639Z,9.40
2023-03-08T05:34:32.598Z,13.57
2023-03-08T05:35:35.552Z,6.68
2023-03-08T05:36:37.537Z,6.00
2023-03-08T05:37:40.486Z,8.40
2023-03-08T05:38:43.032Z,9.63
2023-03-08T05:39:45.932Z,6.63
2023-03-08T05:40:47.979Z,7.00
2023-03-08T05:41:50.916Z,5.38
2023-03-08T05:42:54.420Z,8.05
2023-03-08T05:43:58.596Z,12.57
2023-03-08T05:45:00.888Z,6.30
2023-03-08T05:46:05.907Z,11.45
2023-03-08T05:47:09.498Z,5.53
2023-03-08T05:48:12.463Z,8.07
2023-03-08T05:49:14.410Z,9.93
2023-03-08T05:50:17.866Z,8.63
2023-03-08T05:51:20.872Z,10.77
2023-03-08T05:52:22.866Z,8.18
2023-03-08T05:53:26.476Z,8.82
2023-03-08T05:54:28.609Z,8.35
2023-03-08T05:55:31.535Z,9.73
2023-03-08T05:56:33.568Z,8.32
2023-03-08T05:57:36.969Z,5.32
2023-03-08T05:58:40.433Z,6.32
2023-03-08T05:59:44.383Z,12.27
2023-03-08T06:00:46.336Z,7.20
2023-03-08T06:01:49.311Z,7.35
2023-03-08T06:02:52.765Z,6.30
2023-03-08T06:03:57.717Z,8.00
2023-03-08T06:04:59.672Z,9.60
2023-03-08T06:06:02.572Z,6.30
2023-03-08T06:07:04.682Z,9.13
2023-03-08T06:08:07.618Z,6.45
2023-03-08T06:09:09.675Z,9.98
2023-03-08T06:10:13.017Z,7.60
2023-03-08T06:11:15.379Z,6.45
2023-03-08T06:12:18.344Z,9.13
2023-03-08T06:13:20.335Z,11.13
2023-03-08T06:14:23.700Z,7.28
2023-03-08T06:15:25.714Z,5.57
2023-03-08T06:16:28.690Z,6.88
2023-03-08T06:17:30.667Z,11.35
2023-03-08T06:18:36.747Z,7.32
2023-03-08T06:19:42.734Z,9.50
2023-03-08T06:20:45.659Z,9.45
2023-03-08T06:21:47.577Z,7.28
2023-03-08T06:22:50.504Z,7.30
2023-03-08T06:23:53.407Z,5.60
2023-03-08T06:24:55.412Z,10.82
2023-03-08T06:25:59.500Z,9.13
2023-03-08T06:27:01.395Z,7.15
2023-03-08T06:28:04.389Z,7.93
2023-03-08T06:29:06.306Z,7.07
2023-03-08T06:30:10.515Z,8.40
2023-03-08T06:31:14.362Z,8.80
2023-03-08T06:32:17.572Z,14.65
2023-03-08T06:33:22.343Z,6.13
2023-03-08T06:34:25.697Z,7.88
2023-03-08T06:35:28.723Z,4.57
2023-03-08T06:36:30.670Z,12.63
2023-03-08T06:37:34.869Z,6.40
2023-03-08T06:38:39.529Z,9.50
2023-03-08T06:39:41.786Z,10.10
2023-03-08T06:40:44.775Z,5.65
2023-03-08T06:41:46.702Z,6.30
2023-03-08T06:42:49.713Z,6.82
2023-03-08T06:43:52.667Z,6.75
2023-03-08T06:44:54.617Z,7.15
2023-03-08T06:45:58.371Z,6.95
2023-03-08T06:47:00.319Z,5.63
2023-03-08T06:48:03.240Z,7.43
2023-03-08T06:49:05.332Z,10.80
2023-03-08T06:50:11.810Z,4.68
2023-03-08T06:51:13.880Z,6.88
2023-03-08T06:52:16.835Z,8.02
2023-03-08T06:53:18.920Z,9.65
2023-03-08T06:54:22.369Z,8.82
2023-03-08T06:55:24.324Z,10.00
2023-03-08T06:56:28.054Z,10.23
2023-03-08T06:57:30.400Z,6.93
2023-03-08T06:58:33.848Z,13.27
2023-03-08T06:59:35.972Z,16.75
2023-03-08T07:00:39.146Z,24.80
2023-03-08T07:01:41.333Z,16.95
2023-03-08T07:02:44.675Z,20.60
2023-03-08T07:03:48.729Z,5.90
2023-03-08T07:04:51.722Z,5.90
2023-03-08T07:06:00.112Z,9.27
2023-03-08T07:07:02.445Z,18.65
2023-03-08T07:08:05.877Z,27.55
2023-03-08T07:09:08.837Z,14.30
2023-03-08T07:10:14.689Z,16.70
2023-03-08T07:11:17.961Z,24.50
2023-03-08T07:12:19.894Z,15.55
2023-03-08T07:13:23.836Z,16.00
2023-03-08T07:14:26.809Z,6.25
2023-03-08T07:15:29.106Z,10.82
2023-03-08T07:16:32.346Z,14.52
2023-03-08T07:17:35.544Z,16.05
2023-03-08T07:18:38.862Z,9.95
2023-03-08T07:19:41.136Z,27.08
2023-03-08T07:20:44.333Z,10.00
2023-03-08T07:21:48.712Z,19.10
2023-03-08T07:22:51.102Z,21.88
2023-03-08T07:23:54.111Z,14.00
2023-03-08T07:24:56.049Z,11.40
2023-03-08T07:25:59.164Z,13.20
2023-03-08T07:27:01.140Z,10.63
2023-03-08T07:28:04.120Z,9.48
2023-03-08T07:29:08.038Z,11.57
2023-03-08T07:30:12.007Z,10.65
2023-03-08T07:31:14.921Z,7.60
2023-03-08T07:32:17.064Z,11.48
2023-03-08T07:33:21.437Z,16.23
2023-03-08T07:34:23.386Z,12.07
2023-03-08T07:35:26.345Z,10.50
2023-03-08T07:36:28.292Z,12.10
2023-03-08T07:37:32.779Z,9.35
2023-03-08T07:38:35.744Z,8.90
2023-03-08T07:39:37.695Z,8.55
2023-03-08T07:40:40.775Z,12.75
2023-03-08T07:41:43.748Z,10.18
2023-03-08T07:42:45.696Z,12.20
2023-03-08T07:43:48.645Z,14.13
2023-03-08T07:44:50.805Z,12.90
2023-03-08T07:45:53.958Z,11.25
2023-03-08T07:46:55.997Z,11.98
2023-03-08T07:47:59.216Z,14.43
2023-03-08T07:49:01.212Z,13.98
2023-03-08T07:50:04.528Z,11.40
2023-03-08T07:51:10.224Z,9.18
2023-03-08T07:52:12.294Z,12.90
2023-03-08T07:53:16.758Z,9.48
2023-03-08T07:54:21.631Z,9.55
2023-03-08T07:55:25.495Z,15.85
2023-03-08T07:56:28.558Z,9.85
2023-03-08T07:57:31.441Z,10.00
2023-03-08T07:58:36.031Z,10.18
2023-03-08T07:59:39.004Z,8.93
2023-03-08T08:00:40.979Z,11.02
2023-03-08T08:01:43.919Z,13.07
2023-03-08T08:02:45.892Z,10.18
2023-03-08T08:03:48.993Z,11.20
2023-03-08T08:04:51.065Z,9.43
2023-03-08T08:05:54.100Z,11.50
2023-03-08T08:06:56.063Z,11.90
2023-03-08T08:07:58.975Z,10.27
2023-03-08T08:09:03.882Z,11.00
2023-03-08T08:10:08.189Z,12.52
2023-03-08T08:11:13.109Z,10.93
2023-03-08T08:12:16.026Z,12.00
2023-03-08T08:13:18.965Z,12.20
2023-03-08T08:14:20.876Z,11.27
2023-03-08T08:15:25.638Z,10.13
2023-03-08T08:16:29.013Z,10.80
2023-03-08T08:17:30.959Z,11.73
2023-03-08T08:18:34.050Z,12.38
2023-03-08T08:19:37.858Z,10.38
2023-03-08T08:20:40.809Z,8.02
2023-03-08T08:21:42.741Z,10.88
2023-03-08T08:22:45.691Z,7.32
2023-03-08T08:23:48.847Z,8.18
2023-03-08T08:24:52.168Z,11.02
2023-03-08T08:25:56.004Z,14.30
2023-03-08T08:26:59.149Z,10.60
2023-03-08T08:28:02.074Z,13.77
2023-03-08T08:29:05.485Z,12.80
2023-03-08T08:30:08.909Z,10.90
2023-03-08T08:31:14.865Z,14.90
2023-03-08T08:32:17.834Z,11.65
2023-03-08T08:33:21.356Z,9.55
2023-03-08T08:34:24.771Z,11.73
2023-03-08T08:35:42.110Z,10.27
2023-03-08T08:36:45.851Z,10.18
2023-03-08T08:37:48.792Z,9.45
2023-03-08T08:38:52.202Z,11.95
2023-03-08T08:39:55.770Z,11.18
2023-03-08T08:41:00.891Z,11.32
2023-03-08T08:42:03.975Z,14.15
2023-03-08T08:43:05.975Z,13.23
2023-03-08T08:44:08.983Z,12.90
2023-03-08T08:45:11.612Z,13.25
2023-03-08T08:46:16.472Z,16.48
2023-03-08T08:47:18.419Z,11.75
2023-03-08T08:48:21.428Z,14.45
2023-03-08T08:49:23.390Z,12.20
2023-03-08T08:50:26.355Z,9.82
2023-03-08T08:51:29.504Z,9.27
2023-03-08T08:52:32.557Z,11.05
2023-03-08T08:53:35.048Z,11.07
2023-03-08T08:54:39.942Z,11.65
2023-03-08T08:55:45.631Z,12.40
2023-03-08T08:56:48.767Z,13.80
2023-03-08T08:57:51.863Z,16.08
2023-03-08T08:58:54.000Z,17.00
2023-03-08T08:59:56.932Z,13.25
2023-03-08T09:00:58.872Z,12.85
2023-03-08T09:02:02.016Z,12.13
2023-03-08T09:03:05.422Z,13.02
2023-03-08T09:04:08.587Z,12.65
2023-03-08T09:05:11.788Z,17.98
2023-03-08T09:06:14.181Z,15.38
2023-03-08T09:07:17.254Z,13.55
2023-03-08T09:08:19.465Z,17.27
2023-03-08T09:09:22.742Z,15.65
2023-03-08T09:10:26.313Z,18.75
2023-03-08T09:11:30.129Z,18.33
2023-03-08T09:12:39.324Z,13.50
2023-03-08T09:13:42.335Z,14.65
2023-03-08T09:14:45.359Z,13.90
2023-03-08T09:15:47.304Z,14.90
2023-03-08T09:16:50.368Z,12.40
2023-03-08T09:17:52.574Z,13.82
2023-03-08T09:18:58.597Z,16.33
2023-03-08T09:20:01.560Z,16.25
2023-03-08T09:21:04.729Z,17.13
2023-03-08T09:22:07.770Z,16.77
2023-03-08T09:23:10.232Z,17.27
2023-03-08T09:24:13.570Z,15.18
2023-03-08T09:25:15.973Z,15.05
2023-03-08T09:26:19.001Z,16.08
2023-03-08T09:27:23.296Z,13.95
2023-03-08T09:28:26.226Z,15.48
2023-03-08T09:29:28.152Z,12.48
2023-03-08T09:30:33.071Z,14.75
2023-03-08T09:31:37.756Z,12.00
2023-03-08T09:32:40.940Z,10.82
2023-03-08T09:33:45.824Z,15.40
2023-03-08T09:34:48.946Z,11.95
2023-03-08T09:35:57.570Z,12.77
2023-03-08T09:37:00.648Z,21.13
2023-03-08T09:38:02.643Z,11.07
2023-03-08T09:39:06.619Z,19.67
2023-03-08T09:40:19.713Z,15.35
2023-03-08T09:41:36.652Z,15.70
2023-03-08T09:42:46.028Z,15.52
2023-03-08T09:44:11.721Z,13.35
2023-03-08T09:45:25.989Z,12.82
2023-03-08T09:46:34.363Z,11.27
2023-03-08T09:47:45.021Z,15.23
2023-03-08T09:48:50.935Z,15.02
2023-03-08T09:49:57.476Z,23.65
2023-03-08T09:51:10.831Z,18.00
2023-03-08T09:52:21.402Z,14.60
2023-03-08T09:53:30.996Z,14.95
2023-03-08T09:54:38.232Z,13.15
2023-03-08T09:55:48.306Z,11.82
2023-03-08T09:56:52.101Z,10.68
2023-03-08T09:57:57.885Z,12.48
2023-03-08T09:59:06.989Z,14.10
2023-03-08T10:00:19.348Z,16.88
2023-03-08T10:01:33.726Z,11.90
2023-03-08T10:02:45.420Z,14.90
2023-03-08T10:04:20.728Z,12.20
2023-03-08T10:05:28.579Z,11.57
2023-03-08T10:06:40.574Z,10.38
2023-03-08T10:07:50.728Z,14.98
2023-03-08T10:08:58.349Z,13.85
2023-03-08T10:10:17.910Z,15.98
2023-03-08T10:11:28.234Z,11.95
2023-03-08T10:12:37.833Z,14.80
2023-03-08T10:13:43.655Z,15.18
2023-03-08T10:14:49.232Z,15.10
2023-03-08T10:15:54.451Z,11.68
2023-03-08T10:17:01.826Z,13.63
2023-03-08T10:18:11.487Z,13.38
2023-03-08T10:19:19.220Z,15.25
2023-03-08T10:20:24.533Z,16.55
2023-03-08T10:21:29.113Z,15.65
2023-03-08T10:22:34.655Z,12.65
2023-03-08T10:23:38.048Z,11.75
2023-03-08T10:24:44.832Z,12.35
2023-03-08T10:25:49.354Z,10.90
2023-03-08T10:26:52.359Z,14.82
2023-03-08T10:27:55.736Z,14.77
2023-03-08T10:29:00.106Z,14.60
2023-03-08T10:30:13.691Z,15.98
2023-03-08T10:31:27.609Z,14.75
2023-03-08T10:32:29.664Z,11.70
2023-03-08T10:33:35.409Z,17.90
2023-03-08T10:34:37.491Z,17.20
2023-03-08T10:35:54.812Z,13.05
2023-03-08T10:37:01.285Z,16.00
2023-03-08T10:38:04.917Z,10.45
2023-03-08T10:39:10.124Z,14.25
2023-03-08T10:40:18.755Z,12.88
2023-03-08T10:41:21.981Z,13.07
2023-03-08T10:42:28.280Z,13.40
2023-03-08T10:43:32.577Z,18.75
2023-03-08T10:44:41.169Z,20.13
2023-03-08T10:45:44.118Z,15.15
2023-03-08T10:46:48.628Z,11.52
2023-03-08T10:47:56.931Z,13.20
2023-03-08T10:49:10.909Z,12.85
2023-03-08T10:50:17.650Z,16.67
2023-03-08T10:51:21.858Z,13.90
2023-03-08T10:52:28.559Z,11.77
2023-03-08T10:53:32.473Z,16.38
2023-03-08T10:54:34.402Z,11.52
2023-03-08T10:55:44.599Z,17.55
2023-03-08T10:56:55.928Z,9.50
2023-03-08T10:57:59.803Z,11.73
2023-03-08T10:59:04.166Z,15.95
2023-03-08T11:00:26.422Z,11.05
2023-03-08T11:01:31.179Z,17.60
2023-03-08T11:02:33.225Z,13.07
2023-03-08T11:03:36.482Z,14.95
2023-03-08T11:04:38.504Z,16.35
2023-03-08T11:05:51.500Z,15.52
2023-03-08T11:06:54.484Z,13.95
2023-03-08T11:07:58.907Z,10.43
2023-03-08T11:09:04.500Z,18.27
2023-03-08T11:10:19.292Z,14.30
2023-03-08T11:11:22.335Z,12.45
2023-03-08T11:12:26.910Z,12.60
2023-03-08T11:13:31.740Z,14.80
2023-03-08T11:14:35.451Z,13.77
2023-03-08T11:15:42.577Z,15.65
2023-03-08T11:17:16.559Z,10.27
2023-03-08T11:18:29.473Z,13.13
2023-03-08T11:19:45.854Z,13.38
2023-03-08T11:20:55.242Z,19.88
2023-03-08T11:22:06.396Z,14.88
2023-03-08T11:23:26.357Z,11.55
2023-03-08T11:24:47.015Z,10.90
2023-03-08T11:25:56.685Z,16.42
2023-03-08T11:27:16.628Z,11.60
2023-03-08T11:28:43.249Z,13.98
2023-03-08T11:29:58.331Z,16.38
2023-03-08T11:31:15.031Z,15.15
2023-03-08T11:32:31.382Z,13.98
2023-03-08T11:33:52.409Z,12.48
2023-03-08T11:35:05.865Z,10.93
2023-03-08T11:36:13.234Z,11.93
2023-03-08T11:37:22.756Z,15.80
2023-03-08T11:38:27.059Z,11.70
2023-03-08T11:39:33.845Z,12.40
2023-03-08T11:40:47.757Z,12.48
2023-03-08T11:41:57.077Z,14.80
2023-03-08T11:43:10.206Z,10.20
2023-03-08T11:44:28.197Z,13.32
2023-03-08T11:45:35.420Z,13.82
2023-03-08T11:46:52.869Z,13.95
2023-03-08T11:48:24.553Z,13.63
2023-03-08T11:49:42.722Z,12.23
2023-03-08T11:50:51.494Z,15.98
2023-03-08T11:52:01.169Z,15.13
2023-03-08T11:53:16.115Z,17.05
2023-03-08T11:54:28.316Z,11.55
2023-03-08T11:55:42.158Z,15.00
2023-03-08T11:56:52.105Z,15.13
2023-03-08T11:58:00.612Z,13.50
2023-03-08T11:59:07.463Z,13.35
2023-03-08T12:00:17.958Z,13.05
2023-03-08T12:01:25.302Z,14.45
2023-03-08T12:02:34.502Z,15.68
2023-03-08T12:03:42.592Z,15.07
2023-03-08T12:04:58.332Z,10.85
2023-03-08T12:06:07.314Z,10.77
2023-03-08T12:07:18.998Z,14.57
2023-03-08T12:08:25.119Z,13.30
2023-03-08T12:09:34.813Z,12.63
2023-03-08T12:10:44.985Z,15.02
2023-03-08T12:11:52.776Z,19.65
2023-03-08T12:13:01.015Z,13.00
2023-03-08T12:14:17.639Z,10.85
2023-03-08T12:15:28.544Z,15.13
2023-03-08T12:16:37.952Z,10.82
2023-03-08T12:17:46.989Z,12.07
2023-03-08T12:18:55.609Z,12.60
2023-03-08T12:19:57.586Z,10.05
2023-03-08T12:21:12.341Z,9.98
2023-03-08T12:22:39.253Z,13.15
2023-03-08T12:23:50.728Z,13.95
2023-03-08T12:24:59.128Z,12.07
2023-03-08T12:26:09.216Z,9.32
2023-03-08T12:27:18.427Z,10.45
2023-03-08T12:28:25.500Z,11.70
2023-03-08T12:29:35.839Z,12.43
2023-03-08T12:30:48.758Z,10.15
2023-03-08T12:31:52.988Z,9.13
2023-03-08T12:32:58.409Z,12.75
2023-03-08T12:34:01.751Z,11.90
2023-03-08T12:35:05.613Z,11.80
2023-03-08T12:36:10.397Z,13.30
2023-03-08T12:37:21.141Z,13.98
2023-03-08T12:38:33.450Z,12.77
2023-03-08T12:39:36.781Z,19.50
2023-03-08T12:40:42.597Z,12.75
2023-03-08T12:41:44.697Z,12.45
2023-03-08T12:42:47.664Z,13.80
2023-03-08T12:44:00.863Z,14.38
2023-03-08T12:45:08.453Z,18.42
2023-03-08T12:46:12.332Z,17.42
2023-03-08T12:47:24.088Z,20.02
2023-03-08T12:48:30.620Z,12.40
2023-03-08T12:49:36.334Z,10.80
2023-03-08T12:50:42.763Z,13.02
2023-03-08T12:51:45.770Z,14.27
2023-03-08T12:52:48.088Z,15.93
2023-03-08T12:54:01.182Z,14.77
2023-03-08T12:55:09.090Z,13.45
2023-03-08T12:56:24.902Z,11.43
2023-03-08T12:57:30.614Z,11.40
2023-03-08T12:58:35.767Z,12.98
2023-03-08T12:59:41.272Z,13.77
2023-03-08T13:00:43.612Z,14.20
2023-03-08T13:01:48.419Z,14.73
2023-03-08T13:03:00.964Z,14.80
2023-03-08T13:04:06.962Z,13.43
2023-03-08T13:05:29.267Z,13.70
2023-03-08T13:07:18.143Z,16.10
2023-03-08T13:08:28.985Z,12.57
2023-03-08T13:09:36.425Z,15.25
2023-03-08T13:10:42.135Z,11.05
2023-03-08T13:11:50.400Z,17.95
2023-03-08T13:13:37.577Z,12.52
2023-03-08T13:14:44.195Z,11.13
2023-03-08T13:15:47.291Z,13.30
2023-03-08T13:16:50.658Z,12.75
2023-03-08T13:17:59.661Z,11.45
2023-03-08T13:19:17.604Z,16.60
2023-03-08T13:20:24.088Z,14.68
2023-03-08T13:21:41.360Z,14.23
2023-03-08T13:23:05.369Z,14.10
2023-03-08T13:24:17.231Z,12.60
2023-03-08T13:25:29.526Z,16.45
2023-03-08T13:26:53.681Z,13.75
2023-03-08T13:28:03.655Z,12.77
2023-03-08T13:29:15.593Z,16.27
2023-03-08T13:30:23.737Z,17.40
2023-03-08T13:31:31.202Z,19.23
2023-03-08T13:32:34.363Z,17.92
2023-03-08T13:33:38.980Z,14.65
2023-03-08T13:34:46.300Z,17.88
2023-03-08T13:35:57.367Z,16.60
2023-03-08T13:37:01.570Z,16.80
2023-03-08T13:38:04.544Z,15.63
2023-03-08T13:39:16.864Z,12.18
2023-03-08T13:40:22.658Z,12.88
2023-03-08T13:41:35.520Z,18.00
2023-03-08T13:42:38.438Z,18.00
2023-03-08T13:43:41.344Z,14.10
2023-03-08T13:44:43.320Z,13.23
2023-03-08T13:45:48.804Z,14.80
2023-03-08T13:46:55.198Z,16.73
2023-03-08T13:48:01.393Z,13.93
2023-03-08T13:49:03.486Z,14.75
2023-03-08T13:50:08.725Z,19.30
2023-03-08T13:51:18.992Z,16.05
2023-03-08T13:52:22.948Z,17.27
2023-03-08T13:53:29.239Z,18.13
2023-03-08T13:54:34.194Z,11.30
2023-03-08T13:55:44.152Z,19.48
2023-03-08T13:56:47.177Z,14.55
2023-03-08T13:57:52.727Z,20.15
2023-03-08T13:58:58.938Z,16.33
2023-03-08T14:00:17.908Z,13.50
2023-03-08T14:01:23.376Z,18.00
2023-03-08T14:02:29.423Z,13.57
2023-03-08T14:03:32.867Z,19.05
2023-03-08T14:04:36.279Z,20.80
2023-03-08T14:05:44.013Z,12.38
2023-03-08T14:06:51.266Z,15.85
2023-03-08T14:08:03.168Z,15.63
2023-03-08T14:09:05.804Z,24.88
2023-03-08T14:10:14.434Z,29.52
2023-03-08T14:11:22.919Z,25.83
2023-03-08T14:12:29.474Z,15.27
2023-03-08T14:13:35.232Z,17.30